Livonia, MO (63551)

6:52 PM CDT on August 27, 2014 (GMT -0500)
KMOLANCA2 | Change Station
CLOSE
Current Station
Personal Weather Station
Location: Lancaster, MO
Elevation: 915 ft
Nearby Weather Stations

Elev 915 ft 40.52 °N, 92.52 °W | Updated 14 minutes ago

Mostly Cloudy
Mostly Cloudy
75.9 °F
Feels Like 76 °F
N
0.0
Wind Variable Wind from ESE

Today
High -- | Low -- °F
--% Chance of Precip.
Yesterday
High -- | Low -- °F
Precip. -- in
6:33 AM 7:50 PM
Waxing Crescent, 5% visible
Pressure 30.09 in
Visibility 10.0 miles
Clouds Scattered Clouds 2500 ft
Heat Index 76 °F
Dew Point 73 °F
Humidity 89%
Rainfall 0.73 in
Snow Depth Not available.
UV 1 out of 12
Pollen 8.70 out of 12
Air Quality Not available.
Flu Activity Not available.
METAR KTVK 272335Z AUTO 08005KT 10SM SCT025 24/22 A3009 RMK AO2

More Conditions Fewer Conditions

Pressure 30.09 in
Visibility 10.0 miles
Clouds Scattered Clouds 2500 ft
Heat Index 76 °F
Dew Point 73 °F
Humidity 89%
Rainfall 0.73 in
Snow Depth Not available.
UV 1 out of 12
Pollen 8.70 out of 12
Air Quality Not available.
Flu Activity Not available.
METAR KTVK 272335Z AUTO 08005KT 10SM SCT025 24/22 A3009 RMK AO2

More Conditions Fewer Conditions

10-Day Weather Forecast

Almanac

Astronomy

Aug. 27, 2014 Rise Set
Actual Time 6:33 AM CDT 7:50 PM CDT
Civil Twilight 6:04 AM CDT 8:19 PM CDT
Nautical Twilight 5:31 AM CDT 8:52 PM CDT
Astronomical Twilight 4:55 AM CDT 9:28 PM CDT
Moon 8:30 AM CDT 8:42 PM CDT
Length of Visible Light 14h 14m
Length of Day
13h 17m
Tomorrow will be 2m 31s shorter.
Waxing Crescent, 5% of the Moon is Illuminated
Today
Waxing Crescent
Sep 2
First Quarter
Sep 8
Full
Sep 15
Last Quarter
Sep 24
New

Today's Extremes

State Highs State Lows

Community

WunderPhotos

Upload Photos

1,747,816 photos uploaded!

Nearby

Snow Depth

Station Depth Elevation
No new snow has been reported.

Earthquake Activity

City Distance Mag. Time & Date
No recent earthquake activity has been reported nearby.
Minimum magnitude displayed is 2.5.

Coastal Water Temperatures

Place Temperature
No Stations Reporting

Nearby Weather Stations